Weather History for Himsel Army Airfld, Nineveh,, IN

Change the Weather History Date:

Friday, February 14, 2014

  Actual Average (KGEZ) Record (KGEZ)
Temperature  
Mean Temperature 26 °F 31 °F  
Max Temperature 33 °F 39 °F 55 °F (2001)
Min Temperature 19 °F 23 °F 3 °F (2007)
Degree Days  
Heating Degree Days 39 34  
Month to date heating degree days 489  
Since 1 July heating degree days 3718  
Cooling Degree Days 0 0  
Month to date cooling degree days 0  
Year to date cooling degree days 0  
Moisture  
Dew Point 20 °F    
Average Humidity 78    
Maximum Humidity 93    
Minimum Humidity 60    
Precipitation  
Precipitation 0.00 in 0.09 in 0.61 in (2005)
Month to date precipitation 1.21  
Year to date precipitation 3.60  
Sea Level Pressure  
Sea Level Pressure 29.73 in    
Wind  
Wind Speed 7 mph (NW)    
Max Wind Speed 16 mph    
Max Gust Speed 21 mph    
Visibility 7 miles    
Events Snow    
T = Trace of Precipitation, MM = Missing Value Source: NWS Daily Summary

Daily Weather History Graph

Daily Weather History Graph

Search for Another Location

Airport:

Trip Planner

Search our weather history database for the weather conditions in past years. The results will help you decide how hot, cold, wet, or windy it might be!

Date:

Astronomy

Feb. 14, 2014 Rise Set
Actual Time 7:37 AM EST 6:19 PM EST
Civil Twilight 7:09 AM EST 6:47 PM EST
Nautical Twilight 6:38 AM EST 7:18 PM EST
Astronomical Twilight 6:07 AM EST 7:50 PM EST
Moon 6:22 PM EST (2/14) 7:04 AM EST (2/14)
Length of Visible Light 11h 37m
Length of Day
10h 42m
Full, 100% of the Moon is Illuminated
Feb 14
Full
Feb 14
Full
Feb 22
Last Quarter
Mar 1
New
Mar 8
First Quarter

Hourly Weather History & Observations

Time (EST) Temp. Windchill Dew Point Humidity Pressure Visibility Wind Dir Wind Speed Gust Speed Precip Events Conditions
12:15 AM 32.0 °F 27.5 °F 19.4 °F 60% 29.65 in 10.0 mi SW 4.6 mph - N/A   Clear
12:35 AM 32.0 °F 26.4 °F 21.2 °F 64% 29.65 in 10.0 mi SW 5.8 mph - N/A   Clear
12:55 AM 32.0 °F 24.8 °F 21.2 °F 64% 29.65 in 10.0 mi WSW 8.1 mph - N/A   Clear
1:15 AM 32.0 °F 24.8 °F 23.0 °F 69% 29.65 in 10.0 mi WSW 8.1 mph - N/A   Clear
1:35 AM 32.0 °F 24.2 °F 23.0 °F 69% 29.64 in 10.0 mi WSW 9.2 mph - N/A   Clear
1:55 AM 32.0 °F 25.6 °F 23.0 °F 69% 29.64 in 10.0 mi West 6.9 mph - N/A   Clear
2:15 AM 32.0 °F 25.6 °F 24.8 °F 75% 29.64 in 10.0 mi West 6.9 mph - N/A   Clear
2:35 AM 33.8 °F 25.3 °F 26.6 °F 75% 29.65 in 10.0 mi West 11.5 mph - N/A   Clear
2:55 AM 33.8 °F 27.0 °F 26.6 °F 75% 29.66 in 10.0 mi West 8.1 mph 20.7 mph N/A   Clear
3:15 AM 32.0 °F 22.5 °F 26.6 °F 80% 29.66 in 10.0 mi West 12.7 mph 18.4 mph N/A   Clear
3:35 AM 32.0 °F 22.1 °F 26.6 °F 80% 29.66 in 10.0 mi West 13.8 mph 20.7 mph N/A   Clear
3:55 AM 32.0 °F 23.0 °F 24.8 °F 75% 29.67 in 10.0 mi West 11.5 mph 19.6 mph N/A   Clear
4:15 AM 32.0 °F 24.8 °F 23.0 °F 69% 29.67 in 10.0 mi WNW 8.1 mph 19.6 mph N/A   Clear
4:35 AM 32.0 °F 24.8 °F 23.0 °F 69% 29.67 in 10.0 mi WNW 8.1 mph - N/A   Clear
4:55 AM 30.2 °F 20.2 °F 23.0 °F 75% 29.68 in 10.0 mi WNW 12.7 mph 18.4 mph N/A   Clear
5:15 AM 30.2 °F 21.3 °F 23.0 °F 75% 29.68 in 10.0 mi West 10.4 mph - N/A   Clear
5:35 AM 28.4 °F 18.5 °F 21.2 °F 74% 29.69 in 10.0 mi NNW 11.5 mph - N/A   Scattered Clouds
5:55 AM 26.6 °F 17.5 °F 19.4 °F 74% 29.69 in 10.0 mi NW 9.2 mph - N/A   Clear
6:15 AM 26.6 °F 18.2 °F 17.6 °F 69% 29.69 in 10.0 mi WNW 8.1 mph - N/A   Clear
6:35 AM 26.6 °F 20.0 °F 17.6 °F 69% 29.69 in 10.0 mi WNW 5.8 mph - N/A   Clear
6:55 AM 24.8 °F 17.9 °F 17.6 °F 74% 29.71 in 10.0 mi WNW 5.8 mph - N/A   Clear
7:15 AM 24.8 °F 19.1 °F 17.6 °F 74% 29.73 in 10.0 mi WNW 4.6 mph - N/A   Clear
7:35 AM 23.0 °F 15.8 °F 15.8 °F 74% 29.73 in 10.0 mi WNW 5.8 mph - N/A   Clear
7:55 AM 23.0 °F - 17.6 °F 80% 29.73 in 10.0 mi Calm Calm - N/A   Clear
8:15 AM 23.0 °F - 15.8 °F 74% 29.73 in 10.0 mi Calm Calm - N/A   Clear
8:35 AM 23.0 °F - 15.8 °F 74% 29.74 in 10.0 mi Calm Calm - N/A   Clear
8:55 AM 24.8 °F 20.5 °F 17.6 °F 74% 29.76 in 10.0 mi WSW 3.5 mph - N/A   Scattered Clouds
9:15 AM 26.6 °F 19.1 °F 17.6 °F 69% 29.78 in 10.0 mi West 6.9 mph - N/A   Overcast
9:35 AM 26.6 °F 19.1 °F 17.6 °F 69% 29.78 in 10.0 mi West 6.9 mph - N/A   Overcast
9:55 AM 26.6 °F 20.0 °F 17.6 °F 69% 29.78 in 10.0 mi WSW 5.8 mph - N/A   Overcast
10:15 AM 28.4 °F 21.2 °F 17.6 °F 64% 29.78 in 10.0 mi West 6.9 mph - N/A   Overcast
10:35 AM 26.6 °F 20.0 °F 17.6 °F 69% 29.78 in 10.0 mi North 5.8 mph - N/A   Overcast
10:55 AM 26.6 °F - 17.6 °F 69% 29.77 in 10.0 mi Calm Calm - N/A   Overcast
11:15 AM 26.6 °F - 17.6 °F 69% 29.76 in 10.0 mi Calm Calm - N/A   Overcast
11:35 AM 28.4 °F - 17.6 °F 64% 29.77 in 10.0 mi Calm Calm - N/A   Overcast
11:55 AM 26.6 °F - 19.4 °F 74% 29.76 in 1.2 mi Calm Calm - N/A Snow Light Snow
12:15 PM 26.6 °F - 21.2 °F 80% 29.75 in 2.5 mi Calm Calm - N/A Snow Light Snow
12:35 PM 26.6 °F - 21.2 °F 80% 29.76 in 0.8 mi Calm Calm - N/A Snow Light Snow
12:55 PM 26.6 °F - 21.2 °F 80% 29.76 in 1.5 mi Calm Calm - N/A Snow Light Snow
1:15 PM 26.6 °F 22.6 °F 21.2 °F 80% 29.73 in 1.8 mi ENE 3.5 mph - N/A Snow Light Snow
1:35 PM 26.6 °F 22.6 °F 23.0 °F 86% 29.73 in 1.0 mi SE 3.5 mph - N/A Snow Light Snow
1:55 PM 26.6 °F 20.0 °F 23.0 °F 86% 29.69 in 2.0 mi ENE 5.8 mph - N/A Snow Light Snow
2:15 PM 26.6 °F 21.2 °F 23.0 °F 86% 29.70 in 1.0 mi ENE 4.6 mph - N/A Snow Light Snow
2:35 PM 26.6 °F 21.2 °F 23.0 °F 86% 29.69 in 0.5 mi East 4.6 mph - N/A Snow Light Snow
2:55 PM 26.6 °F 22.6 °F 23.0 °F 86% 29.69 in 1.0 mi ESE 3.5 mph - N/A Snow Light Snow
3:15 PM 26.6 °F - 23.0 °F 86% 29.71 in 0.5 mi Calm Calm - N/A Snow Snow
3:35 PM 26.6 °F 22.6 °F 23.0 °F 86% 29.69 in 0.5 mi East 3.5 mph - N/A Snow Light Snow
3:55 PM 26.6 °F 22.6 °F 23.0 °F 86% 29.69 in 0.5 mi NE 3.5 mph - N/A Snow Light Snow
4:15 PM 26.6 °F 22.6 °F 23.0 °F 86% 29.68 in 0.5 mi NNE 3.5 mph - N/A Snow Light Snow
4:35 PM 26.6 °F 20.0 °F 23.0 °F 86% 29.68 in 0.8 mi North 5.8 mph - N/A Snow Light Snow
4:55 PM 26.6 °F 19.1 °F 23.0 °F 86% 29.69 in 1.5 mi North 6.9 mph - N/A Snow Light Snow
5:15 PM 24.8 °F 14.6 °F 23.0 °F 93% 29.70 in 2.5 mi North 10.4 mph - N/A Snow Light Snow
5:35 PM 24.8 °F 12.4 °F 21.2 °F 86% 29.71 in 4.0 mi North 15.0 mph - N/A Snow Light Snow
5:55 PM 23.0 °F 11.1 °F 21.2 °F 93% 29.72 in 3.0 mi North 12.7 mph - N/A Snow Light Snow
6:15 PM 23.0 °F 11.1 °F 21.2 °F 93% 29.72 in 2.0 mi North 12.7 mph - N/A Snow Light Snow
6:35 PM 23.0 °F 10.6 °F 19.4 °F 86% 29.74 in 3.0 mi North 13.8 mph - N/A Snow Light Snow
6:55 PM 23.0 °F 11.1 °F 19.4 °F 86% 29.75 in 3.0 mi North 12.7 mph - N/A Snow Light Snow
7:15 PM 23.0 °F 13.9 °F 19.4 °F 86% 29.75 in 3.0 mi North 8.1 mph - N/A Snow Light Snow
7:35 PM 23.0 °F 12.4 °F 19.4 °F 86% 29.77 in 5.0 mi North 10.4 mph - N/A   Overcast
7:55 PM 23.0 °F 13.1 °F 19.4 °F 86% 29.77 in 5.0 mi North 9.2 mph - N/A   Overcast
8:15 PM 23.0 °F 13.1 °F 19.4 °F 86% 29.78 in 7.0 mi NNW 9.2 mph - N/A   Overcast
8:35 PM 23.0 °F 10.1 °F 19.4 °F 86% 29.79 in 7.0 mi NNW 15.0 mph 20.7 mph N/A   Overcast
8:55 PM 23.0 °F 10.6 °F 19.4 °F 86% 29.80 in 7.0 mi NNW 13.8 mph 19.6 mph N/A   Overcast
9:15 PM 21.2 °F 8.9 °F 17.6 °F 86% 29.81 in 4.0 mi NNW 12.7 mph - N/A Snow Light Snow
9:35 PM 21.2 °F 8.9 °F 17.6 °F 86% 29.81 in 3.0 mi NNW 12.7 mph - N/A Snow Light Snow
9:55 PM 21.2 °F 9.5 °F 17.6 °F 86% 29.83 in 5.0 mi NNW 11.5 mph - N/A   Scattered Clouds
10:15 PM 21.2 °F 8.9 °F 17.6 °F 86% 29.83 in 7.0 mi NNW 12.7 mph - N/A   Scattered Clouds
10:35 PM 21.2 °F 7.3 °F 15.8 °F 80% 29.84 in 10.0 mi NW 16.1 mph 20.7 mph N/A   Mostly Cloudy
10:55 PM 19.4 °F 7.2 °F 14.0 °F 80% 29.85 in 10.0 mi NW 11.5 mph 19.6 mph N/A   Overcast
11:15 PM 19.4 °F 6.6 °F 14.0 °F 80% 29.86 in 10.0 mi NW 12.7 mph 19.6 mph N/A   Overcast
11:35 PM 19.4 °F 6.6 °F 14.0 °F 80% 29.87 in 10.0 mi NW 12.7 mph - N/A   Overcast
11:55 PM 19.4 °F 6.6 °F 14.0 °F 80% 29.88 in 10.0 mi NW 12.7 mph - N/A   Mostly Cloudy